createdAt,value
2022-09-05T00:02:01.481Z,9.40
2022-09-05T00:04:30.503Z,9.57
2022-09-05T00:07:09.969Z,9.80
2022-09-05T00:10:15.062Z,10.43
2022-09-05T00:12:39.449Z,9.93
2022-09-05T00:15:23.900Z,9.63
2022-09-05T00:21:31.543Z,9.93
2022-09-05T00:24:37.911Z,10.67
2022-09-05T00:24:50.336Z,10.50
2022-09-05T00:27:50.039Z,9.32
2022-09-05T00:31:51.647Z,9.00
2022-09-05T00:33:32.570Z,9.07
2022-09-05T00:36:20.060Z,8.50
2022-09-05T00:39:20.072Z,8.43
2022-09-05T00:41:42.725Z,8.47
2022-09-05T00:44:07.125Z,8.33
2022-09-05T00:46:36.749Z,9.25
2022-09-05T00:50:00.085Z,8.50
2022-09-05T00:52:37.123Z,8.97
2022-09-05T00:55:36.984Z,10.20
2022-09-05T00:58:23.148Z,9.03
2022-09-05T01:00:55.523Z,10.00
2022-09-05T01:03:36.202Z,9.97
2022-09-05T01:06:32.806Z,9.33
2022-09-05T01:09:48.828Z,9.07
2022-09-05T01:12:52.784Z,9.80
2022-09-05T01:15:24.756Z,9.97
2022-09-05T01:18:19.683Z,8.93
2022-09-05T01:21:07.562Z,9.70
2022-09-05T01:23:57.637Z,9.73
2022-09-05T01:27:04.395Z,9.60
2022-09-05T01:29:54.392Z,9.73
2022-09-05T01:32:52.514Z,9.50
2022-09-05T01:36:07.852Z,10.13
2022-09-05T01:40:12.289Z,9.63
2022-09-05T01:42:32.984Z,10.23
2022-09-05T01:45:39.494Z,9.95
2022-09-05T01:48:16.830Z,10.20
2022-09-05T01:51:00.396Z,10.20
2022-09-05T01:56:30.011Z,10.20
2022-09-05T01:59:00.864Z,10.60
2022-09-05T02:02:05.807Z,10.70
2022-09-05T02:04:39.211Z,11.97
2022-09-05T02:07:30.267Z,11.93
2022-09-05T02:10:14.946Z,10.97
2022-09-05T02:13:03.504Z,12.27
2022-09-05T02:15:58.976Z,11.17
2022-09-05T02:18:45.866Z,11.00
2022-09-05T02:21:33.519Z,11.93
2022-09-05T02:24:36.086Z,11.97
2022-09-05T02:28:04.766Z,11.00
2022-09-05T02:30:37.234Z,11.30
2022-09-05T02:33:35.810Z,11.60
2022-09-05T02:36:31.501Z,10.73
2022-09-05T02:44:18.277Z,11.20
2022-09-05T02:45:20.774Z,10.50
2022-09-05T02:45:28.758Z,10.53
2022-09-05T02:48:15.603Z,10.80
2022-09-05T02:57:23.037Z,11.57
2022-09-05T02:57:36.530Z,11.50
2022-09-05T02:58:04.727Z,10.90
2022-09-05T03:00:11.706Z,10.97
2022-09-05T03:02:58.482Z,10.90
2022-09-05T03:06:34.556Z,11.00
2022-09-05T03:09:34.328Z,11.55
2022-09-05T03:12:53.480Z,10.77
2022-09-05T03:15:39.747Z,11.37
2022-09-05T03:18:45.594Z,11.23
2022-09-05T03:21:54.082Z,11.07
2022-09-05T03:25:06.761Z,12.40
2022-09-05T03:27:50.182Z,11.53
2022-09-05T03:30:16.354Z,12.57
2022-09-05T03:33:15.079Z,10.67
2022-09-05T03:36:18.963Z,11.47
2022-09-05T03:38:59.636Z,12.23
2022-09-05T03:41:58.082Z,11.87
2022-09-05T03:45:03.055Z,12.30
2022-09-05T03:48:04.954Z,11.67
2022-09-05T03:57:08.213Z,12.00
2022-09-05T03:57:23.791Z,11.33
2022-09-05T03:58:16.692Z,12.00
2022-09-05T04:02:04.778Z,12.40
2022-09-05T04:08:19.031Z,12.47
2022-09-05T04:08:28.208Z,11.93
2022-09-05T04:10:03.745Z,12.60
2022-09-05T04:12:39.055Z,12.40
2022-09-05T04:15:22.588Z,11.90
2022-09-05T04:17:54.549Z,12.03
2022-09-05T04:20:47.830Z,12.13
2022-09-05T04:23:53.528Z,12.73
2022-09-05T04:26:46.592Z,13.07
2022-09-05T04:29:38.018Z,14.57
2022-09-05T04:32:54.565Z,13.50
2022-09-05T04:35:28.589Z,13.57
2022-09-05T04:38:18.374Z,14.07
2022-09-05T04:40:43.213Z,13.40
2022-09-05T04:43:46.172Z,12.57
2022-09-05T04:46:18.850Z,11.93
2022-09-05T04:49:02.093Z,13.00
2022-09-05T04:51:43.950Z,12.77
2022-09-05T04:54:39.808Z,13.10
2022-09-05T04:57:14.014Z,12.38
2022-09-05T05:05:59.655Z,11.70
2022-09-05T05:06:09.763Z,13.23
2022-09-05T05:06:15.484Z,12.63
2022-09-05T05:08:58.467Z,13.47
2022-09-05T05:18:00.195Z,13.70
2022-09-05T05:18:01.255Z,12.93
2022-09-05T05:18:38.658Z,12.90
2022-09-05T05:21:20.376Z,13.57
2022-09-05T05:23:52.237Z,13.20
2022-09-05T05:26:28.009Z,13.87
2022-09-05T05:29:08.184Z,14.60
2022-09-05T05:31:56.916Z,14.03
2022-09-05T05:34:29.415Z,13.00
2022-09-05T05:37:14.283Z,14.30
2022-09-05T05:39:50.017Z,16.52
2022-09-05T05:42:23.486Z,14.53
2022-09-05T05:44:53.894Z,15.23
2022-09-05T05:47:31.695Z,14.20
2022-09-05T05:50:36.333Z,15.93
2022-09-05T05:53:43.642Z,16.10
2022-09-05T05:56:46.799Z,15.63
2022-09-05T05:59:56.558Z,16.67
2022-09-05T06:03:24.783Z,15.60
2022-09-05T06:06:07.274Z,15.53
2022-09-05T06:14:52.569Z,16.80
2022-09-05T06:14:58.130Z,16.17
2022-09-05T06:15:46.622Z,15.75
2022-09-05T06:18:27.675Z,15.83
2022-09-05T06:22:11.423Z,15.87
2022-09-05T06:24:31.977Z,15.60
2022-09-05T06:27:28.545Z,16.47
2022-09-05T06:30:19.306Z,14.87
2022-09-05T06:33:08.403Z,16.53
2022-09-05T06:36:31.078Z,17.47
2022-09-05T06:39:35.858Z,15.93
2022-09-05T06:42:40.686Z,16.37
2022-09-05T06:45:46.623Z,15.80
2022-09-05T06:48:45.841Z,15.60
2022-09-05T06:51:29.127Z,15.70
2022-09-05T06:54:22.686Z,16.20
2022-09-05T06:56:47.539Z,17.30
2022-09-05T07:00:03.254Z,17.38
2022-09-05T07:02:58.246Z,18.27
2022-09-05T07:06:44.288Z,18.23
2022-09-05T07:09:30.265Z,18.73
2022-09-05T07:12:13.732Z,17.77
2022-09-05T07:15:11.520Z,17.65
2022-09-05T07:18:11.100Z,20.08
2022-09-05T07:21:17.259Z,19.60
2022-09-05T07:24:09.215Z,18.90
2022-09-05T07:26:52.084Z,17.20
2022-09-05T07:29:23.323Z,18.73
2022-09-05T07:31:55.318Z,18.88
2022-09-05T07:34:37.054Z,16.92
2022-09-05T07:37:15.368Z,16.05
2022-09-05T07:39:48.448Z,16.85
2022-09-05T07:42:38.051Z,16.42
2022-09-05T07:45:10.833Z,16.30
2022-09-05T07:47:42.568Z,15.65
2022-09-05T07:50:42.883Z,16.42
2022-09-05T07:56:47.696Z,16.80
2022-09-05T07:56:58.644Z,16.88
2022-09-05T07:58:41.479Z,16.48
2022-09-05T08:01:03.568Z,15.88
2022-09-05T08:03:29.242Z,15.10
2022-09-05T08:05:54.683Z,14.38
2022-09-05T08:08:24.514Z,11.95
2022-09-05T08:11:22.478Z,11.60
2022-09-05T08:13:40.582Z,9.98
2022-09-05T08:16:12.936Z,9.98
2022-09-05T08:19:08.963Z,10.18
2022-09-05T08:21:46.939Z,9.52
2022-09-05T08:24:13.398Z,9.63
2022-09-05T08:27:00.231Z,9.93
2022-09-05T08:29:38.498Z,9.10
2022-09-05T08:32:12.024Z,8.43
2022-09-05T08:34:47.779Z,8.73
2022-09-05T08:37:15.181Z,9.00
2022-09-05T08:39:47.964Z,9.88
2022-09-05T08:42:27.271Z,9.00
2022-09-05T08:46:42.292Z,9.73
2022-09-05T08:48:20.595Z,10.85
2022-09-05T08:51:41.864Z,9.93
2022-09-05T08:54:48.622Z,10.38
2022-09-05T08:57:21.915Z,11.30
2022-09-05T09:00:18.837Z,9.90
2022-09-05T09:03:25.704Z,8.57
2022-09-05T09:06:27.841Z,7.82
2022-09-05T09:09:13.116Z,8.13
2022-09-05T09:11:44.151Z,7.90
2022-09-05T09:14:46.089Z,7.10
2022-09-05T09:17:42.302Z,7.82
2022-09-05T09:20:21.559Z,7.78
2022-09-05T09:23:03.280Z,5.95
2022-09-05T09:26:07.081Z,5.38
2022-09-05T09:28:49.775Z,5.88
2022-09-05T09:31:28.845Z,5.32
2022-09-05T09:34:11.052Z,4.78
2022-09-05T09:36:47.975Z,6.25
2022-09-05T09:39:50.237Z,4.18
2022-09-05T09:42:53.951Z,3.60
2022-09-05T09:45:51.346Z,3.53
2022-09-05T09:48:29.593Z,3.40
2022-09-05T09:50:58.734Z,3.58
2022-09-05T09:53:51.003Z,3.70
2022-09-05T09:56:27.555Z,3.40
2022-09-05T09:59:41.674Z,3.13
2022-09-05T10:06:03.181Z,3.10
2022-09-05T10:10:47.957Z,2.65
2022-09-05T10:10:51.895Z,2.42
2022-09-05T10:12:53.354Z,2.60
2022-09-05T10:15:50.612Z,2.25
2022-09-05T10:19:00.847Z,2.10
2022-09-05T10:25:30.463Z,2.50
2022-09-05T10:28:35.360Z,2.25
2022-09-05T10:32:58.068Z,2.30
2022-09-05T10:35:13.601Z,2.28
2022-09-05T10:37:13.018Z,2.10
2022-09-05T10:39:44.853Z,1.63
2022-09-05T10:42:17.838Z,1.92
2022-09-05T10:44:55.183Z,2.08
2022-09-05T10:47:47.917Z,2.00
2022-09-05T10:50:29.289Z,1.80
2022-09-05T10:52:51.190Z,1.95
2022-09-05T10:55:33.377Z,1.95
2022-09-05T10:58:16.910Z,2.00
2022-09-05T11:02:27.829Z,2.08
2022-09-05T11:04:49.648Z,2.10
2022-09-05T11:07:29.450Z,1.73
2022-09-05T11:10:02.435Z,1.90
2022-09-05T11:12:57.427Z,2.00
2022-09-05T11:15:32.723Z,1.90
2022-09-05T11:18:05.114Z,1.75
2022-09-05T11:21:04.307Z,1.70
2022-09-05T11:23:57.470Z,1.77
2022-09-05T11:26:32.186Z,1.95
2022-09-05T11:29:05.457Z,1.70
2022-09-05T11:34:40.152Z,2.00
2022-09-05T11:39:48.060Z,2.10
2022-09-05T11:39:50.923Z,2.05
2022-09-05T11:41:19.564Z,1.92
2022-09-05T11:44:09.451Z,1.90
2022-09-05T11:47:29.687Z,1.90
2022-09-05T11:50:12.052Z,1.85
2022-09-05T11:53:19.999Z,1.80
2022-09-05T11:56:18.268Z,1.75
2022-09-05T11:59:16.448Z,1.80
2022-09-05T12:02:23.432Z,1.98
2022-09-05T12:05:48.666Z,2.00
2022-09-05T12:08:28.624Z,2.10
2022-09-05T12:11:21.170Z,1.98
2022-09-05T12:14:00.967Z,1.73
2022-09-05T12:17:35.299Z,2.00
2022-09-05T12:20:17.193Z,2.05
2022-09-05T12:23:49.262Z,1.88
2022-09-05T12:27:38.042Z,2.30
2022-09-05T12:29:33.658Z,2.10
2022-09-05T12:33:33.890Z,1.92
2022-09-05T12:36:05.995Z,2.22
2022-09-05T12:40:16.582Z,1.92
2022-09-05T12:41:38.579Z,2.10
2022-09-05T12:44:36.579Z,1.92
2022-09-05T12:46:51.633Z,1.88
2022-09-05T12:49:38.148Z,2.05
2022-09-05T12:52:20.689Z,2.10
2022-09-05T12:54:57.091Z,2.10
2022-09-05T13:02:25.078Z,2.00
2022-09-05T13:03:06.198Z,2.15
2022-09-05T13:03:29.190Z,1.85
2022-09-05T13:06:09.516Z,2.15
2022-09-05T13:08:59.091Z,1.90
2022-09-05T13:14:47.370Z,2.05
2022-09-05T13:14:57.928Z,2.03
2022-09-05T13:17:08.077Z,1.83
2022-09-05T13:19:40.423Z,1.60
2022-09-05T13:22:05.291Z,2.03
2022-09-05T13:24:35.924Z,1.80
2022-09-05T13:27:15.219Z,2.10
2022-09-05T13:31:13.842Z,2.15
2022-09-05T13:37:56.381Z,2.00
2022-09-05T13:38:01.344Z,1.85
2022-09-05T13:38:49.401Z,1.90
2022-09-05T13:41:27.413Z,2.13
2022-09-05T13:43:50.370Z,2.00
2022-09-05T13:46:58.834Z,2.10
2022-09-05T13:49:37.103Z,2.15
2022-09-05T13:52:28.942Z,1.73
2022-09-05T13:55:10.868Z,2.00
2022-09-05T13:58:08.455Z,2.00
2022-09-05T14:00:38.198Z,2.13
2022-09-05T14:03:37.593Z,2.20
2022-09-05T14:06:47.488Z,2.05
2022-09-05T14:09:37.067Z,1.90
2022-09-05T14:12:30.079Z,2.00
2022-09-05T14:15:25.749Z,1.80
2022-09-05T14:18:01.270Z,2.00
2022-09-05T14:20:55.765Z,2.25
2022-09-05T14:23:24.870Z,2.00
2022-09-05T14:26:02.739Z,2.10
2022-09-05T14:28:33.602Z,2.20
2022-09-05T14:37:01.896Z,2.30
2022-09-05T14:37:50.670Z,1.85
2022-09-05T14:37:54.322Z,2.20
2022-09-05T14:40:59.843Z,2.22
2022-09-05T14:44:11.485Z,2.08
2022-09-05T14:47:48.269Z,2.20
2022-09-05T14:50:35.036Z,2.22
2022-09-05T14:56:50.162Z,1.90
2022-09-05T15:02:49.360Z,2.15
2022-09-05T15:02:50.349Z,1.80
2022-09-05T15:05:40.798Z,2.10
2022-09-05T15:11:25.310Z,1.92
2022-09-05T15:12:20.852Z,2.30
2022-09-05T15:14:04.537Z,1.92
2022-09-05T15:16:26.422Z,2.30
2022-09-05T15:18:50.772Z,2.05
2022-09-05T15:21:35.369Z,2.20
2022-09-05T15:26:36.111Z,1.85
2022-09-05T15:29:34.286Z,2.10
2022-09-05T15:32:22.601Z,1.95
2022-09-05T15:34:44.520Z,1.85
2022-09-05T15:37:38.709Z,2.03
2022-09-05T15:40:23.563Z,2.20
2022-09-05T15:42:52.006Z,2.15
2022-09-05T15:45:35.277Z,2.20
2022-09-05T15:48:16.400Z,2.05
2022-09-05T15:50:51.351Z,1.95
2022-09-05T15:53:26.918Z,2.00
2022-09-05T15:55:50.404Z,2.00
2022-09-05T15:58:22.273Z,1.73
2022-09-05T16:00:51.927Z,2.13
2022-09-05T16:04:56.602Z,2.17
2022-09-05T16:10:35.548Z,1.60
2022-09-05T16:10:50.118Z,1.92
2022-09-05T16:14:36.561Z,2.10
2022-09-05T16:23:20.215Z,2.00
2022-09-05T16:23:28.261Z,2.03
2022-09-05T16:23:37.954Z,1.85
2022-09-05T16:25:55.356Z,1.75
2022-09-05T16:28:24.307Z,1.85
2022-09-05T16:30:48.203Z,2.05
2022-09-05T16:33:30.046Z,1.60
2022-09-05T16:36:01.562Z,1.95
2022-09-05T16:38:49.931Z,2.00
2022-09-05T16:41:41.254Z,1.80
2022-09-05T16:44:53.776Z,2.10
2022-09-05T16:47:36.727Z,2.15
2022-09-05T16:49:58.834Z,2.03
2022-09-05T16:52:35.595Z,2.30
2022-09-05T16:55:28.494Z,2.17
2022-09-05T16:58:15.851Z,2.00
2022-09-05T17:00:54.641Z,2.10
2022-09-05T17:03:47.795Z,2.30
2022-09-05T17:06:36.228Z,2.38
2022-09-05T17:09:12.592Z,2.30
2022-09-05T17:12:01.404Z,2.08
2022-09-05T17:14:26.878Z,2.30
2022-09-05T17:16:56.570Z,2.55
2022-09-05T17:20:07.560Z,2.83
2022-09-05T17:25:20.991Z,3.50
2022-09-05T17:29:28.324Z,3.10
2022-09-05T17:29:32.753Z,3.13
2022-09-05T17:31:55.931Z,2.50
2022-09-05T17:34:21.516Z,2.33
2022-09-05T17:37:17.888Z,2.17
2022-09-05T17:40:09.580Z,2.17
2022-09-05T17:43:06.042Z,2.50
2022-09-05T17:46:00.829Z,2.30
2022-09-05T17:49:08.657Z,2.58
2022-09-05T17:51:29.199Z,2.30
2022-09-05T17:54:00.146Z,2.33
2022-09-05T17:56:44.105Z,3.03
2022-09-05T17:59:21.300Z,2.75
2022-09-05T18:02:03.279Z,2.50
2022-09-05T18:04:53.138Z,2.70
2022-09-05T18:07:28.545Z,2.53
2022-09-05T18:10:15.211Z,2.33
2022-09-05T18:13:14.057Z,2.30
2022-09-05T18:15:22.605Z,2.50
2022-09-05T18:17:46.898Z,2.80
2022-09-05T18:22:43.767Z,2.33
2022-09-05T18:25:33.512Z,2.80
2022-09-05T18:28:22.462Z,2.60
2022-09-05T18:30:45.313Z,2.83
2022-09-05T18:33:54.432Z,2.50
2022-09-05T18:35:57.722Z,2.60
2022-09-05T18:38:50.287Z,2.75
2022-09-05T18:41:23.390Z,2.40
2022-09-05T18:44:12.239Z,2.72
2022-09-05T18:46:48.659Z,2.30
2022-09-05T18:50:25.067Z,2.63
2022-09-05T18:52:34.463Z,2.70
2022-09-05T18:55:30.047Z,2.90
2022-09-05T18:58:03.858Z,2.67
2022-09-05T19:00:44.083Z,2.90
2022-09-05T19:03:29.398Z,2.70
2022-09-05T19:06:36.250Z,2.80
2022-09-05T19:08:57.279Z,2.40
2022-09-05T19:11:34.218Z,2.40
2022-09-05T19:14:25.720Z,2.20
2022-09-05T19:16:50.277Z,2.58
2022-09-05T19:19:24.394Z,2.38
2022-09-05T19:24:45.550Z,2.50
2022-09-05T19:28:09.631Z,2.85
2022-09-05T19:36:52.112Z,3.20
2022-09-05T19:36:56.367Z,3.15
2022-09-05T19:37:03.613Z,4.18
2022-09-05T19:38:13.391Z,4.13
2022-09-05T19:47:29.917Z,3.78
2022-09-05T19:47:35.724Z,2.92
2022-09-05T19:47:36.397Z,3.40
2022-09-05T19:49:24.739Z,3.08
2022-09-05T19:51:47.479Z,2.78
2022-09-05T19:54:32.185Z,2.75
2022-09-05T19:57:05.751Z,3.03
2022-09-05T19:59:39.492Z,2.90
2022-09-05T20:02:02.929Z,3.22
2022-09-05T20:04:31.699Z,2.97
2022-09-05T20:06:53.738Z,2.50
2022-09-05T20:09:21.239Z,2.65
2022-09-05T20:11:52.865Z,2.72
2022-09-05T20:14:27.141Z,2.85
2022-09-05T20:16:52.155Z,2.60
2022-09-05T20:19:29.858Z,2.47
2022-09-05T20:21:56.775Z,3.25
2022-09-05T20:24:20.563Z,2.72
2022-09-05T20:26:47.314Z,3.03
2022-09-05T20:29:09.335Z,2.90
2022-09-05T20:31:34.731Z,2.92
2022-09-05T20:34:19.245Z,3.40
2022-09-05T20:43:11.498Z,3.78
2022-09-05T20:43:20.296Z,3.35
2022-09-05T20:43:30.954Z,2.97
2022-09-05T20:45:45.854Z,3.03
2022-09-05T20:54:07.542Z,3.20
2022-09-05T20:54:24.998Z,2.83
2022-09-05T20:54:32.179Z,3.13
2022-09-05T20:56:35.051Z,2.90
2022-09-05T20:58:58.664Z,3.22
2022-09-05T21:01:23.611Z,2.55
2022-09-05T21:04:00.599Z,3.05
2022-09-05T21:06:33.285Z,3.22
2022-09-05T21:09:12.508Z,3.10
2022-09-05T21:11:34.753Z,3.22
2022-09-05T21:14:01.519Z,3.78
2022-09-05T21:16:56.148Z,3.10
2022-09-05T21:19:30.579Z,2.80
2022-09-05T21:22:09.313Z,2.78
2022-09-05T21:24:31.434Z,2.90
2022-09-05T21:26:53.384Z,2.75
2022-09-05T21:29:32.960Z,3.22
2022-09-05T21:32:00.413Z,2.90
2022-09-05T21:34:38.540Z,3.63
2022-09-05T21:37:12.008Z,3.28
2022-09-05T21:39:46.757Z,2.80
2022-09-05T21:45:35.356Z,2.42
2022-09-05T21:47:37.889Z,2.42
2022-09-05T21:47:53.191Z,2.60
2022-09-05T21:50:30.757Z,2.60
2022-09-05T21:53:15.895Z,2.30
2022-09-05T21:59:28.691Z,2.50
2022-09-05T21:59:30.626Z,2.58
2022-09-05T22:01:04.275Z,2.55
2022-09-05T22:03:26.189Z,2.90
2022-09-05T22:05:49.255Z,2.38
2022-09-05T22:08:12.255Z,2.65
2022-09-05T22:10:43.419Z,2.25
2022-09-05T22:13:15.147Z,2.60
2022-09-05T22:15:39.081Z,2.65
2022-09-05T22:18:16.668Z,2.67
2022-09-05T22:20:40.656Z,2.72
2022-09-05T22:23:02.494Z,2.83
2022-09-05T22:25:33.297Z,2.72
2022-09-05T22:28:06.352Z,2.70
2022-09-05T22:30:28.524Z,3.00
2022-09-05T22:32:50.408Z,3.20
2022-09-05T22:35:27.252Z,2.97
2022-09-05T22:37:59.098Z,2.80
2022-09-05T22:40:21.635Z,2.83
2022-09-05T22:42:43.759Z,3.17
2022-09-05T22:45:06.109Z,2.80
2022-09-05T22:47:29.894Z,3.17
2022-09-05T22:49:51.776Z,3.03
2022-09-05T22:52:13.725Z,3.30
2022-09-05T22:54:36.500Z,3.38
2022-09-05T22:56:58.305Z,2.72
2022-09-05T22:59:20.082Z,3.13
2022-09-05T23:01:41.912Z,3.20
2022-09-05T23:04:03.862Z,2.80
2022-09-05T23:06:26.115Z,3.20
2022-09-05T23:08:48.321Z,3.05
2022-09-05T23:11:16.339Z,3.50
2022-09-05T23:13:38.749Z,3.45
2022-09-05T23:16:00.596Z,3.35
2022-09-05T23:18:22.452Z,3.45
2022-09-05T23:20:44.509Z,3.92
2022-09-05T23:23:07.432Z,3.47
2022-09-05T23:25:29.195Z,4.18
2022-09-05T23:27:51.545Z,4.75
2022-09-05T23:30:14.363Z,4.28
2022-09-05T23:32:36.259Z,4.53
2022-09-05T23:34:58.621Z,4.65
2022-09-05T23:37:20.456Z,3.97
2022-09-05T23:39:42.246Z,4.63
2022-09-05T23:42:04.351Z,4.63
2022-09-05T23:44:26.193Z,4.50
2022-09-05T23:46:47.991Z,4.18
2022-09-05T23:49:10.001Z,3.83
2022-09-05T23:51:31.871Z,4.30
2022-09-05T23:53:53.680Z,3.80
